sensor_id;sensor_type;location;lat;lon;timestamp;P1;durP1;ratioP1;P2;durP2;ratioP2
39880;SDS011;25554;44.954;10.068;2022-09-02T00:01:15;8.60;;;4.82;;
39880;SDS011;25554;44.954;10.068;2022-09-02T00:03:47;9.15;;;5.35;;
39880;SDS011;25554;44.954;10.068;2022-09-02T00:06:14;6.28;;;4.47;;
39880;SDS011;25554;44.954;10.068;2022-09-02T00:08:41;6.20;;;4.53;;
39880;SDS011;25554;44.954;10.068;2022-09-02T00:11:07;10.25;;;4.95;;
39880;SDS011;25554;44.954;10.068;2022-09-02T00:13:39;7.68;;;5.30;;
39880;SDS011;25554;44.954;10.068;2022-09-02T00:18:32;10.80;;;5.13;;
39880;SDS011;25554;44.954;10.068;2022-09-02T00:23:24;10.20;;;5.07;;
39880;SDS011;25554;44.954;10.068;2022-09-02T00:25:51;6.57;;;4.95;;
39880;SDS011;25554;44.954;10.068;2022-09-02T00:33:12;7.57;;;4.95;;
39880;SDS011;25554;44.954;10.068;2022-09-02T00:35:39;9.70;;;6.13;;
39880;SDS011;25554;44.954;10.068;2022-09-02T00:38:06;9.23;;;5.57;;
39880;SDS011;25554;44.954;10.068;2022-09-02T00:40:36;13.65;;;5.82;;
39880;SDS011;25554;44.954;10.068;2022-09-02T00:43:04;10.20;;;5.70;;
39880;SDS011;25554;44.954;10.068;2022-09-02T00:45:33;8.32;;;6.40;;
39880;SDS011;25554;44.954;10.068;2022-09-02T00:48:01;8.07;;;5.75;;
39880;SDS011;25554;44.954;10.068;2022-09-02T00:50:29;8.50;;;5.68;;
39880;SDS011;25554;44.954;10.068;2022-09-02T00:52:59;12.05;;;6.65;;
39880;SDS011;25554;44.954;10.068;2022-09-02T00:55:32;8.90;;;5.53;;
39880;SDS011;25554;44.954;10.068;2022-09-02T00:58:05;9.02;;;5.53;;
39880;SDS011;25554;44.954;10.068;2022-09-02T01:00:40;13.25;;;6.22;;
39880;SDS011;25554;44.954;10.068;2022-09-02T01:03:10;9.50;;;5.80;;
39880;SDS011;25554;44.954;10.068;2022-09-02T01:05:43;10.68;;;6.88;;
39880;SDS011;25554;44.954;10.068;2022-09-02T01:08:15;9.95;;;5.70;;
39880;SDS011;25554;44.954;10.068;2022-09-02T01:10:45;10.27;;;6.10;;
39880;SDS011;25554;44.954;10.068;2022-09-02T01:13:14;11.10;;;5.97;;
39880;SDS011;25554;44.954;10.068;2022-09-02T01:15:44;10.07;;;5.57;;
39880;SDS011;25554;44.954;10.068;2022-09-02T01:18:14;10.32;;;5.95;;
39880;SDS011;25554;44.954;10.068;2022-09-02T01:20:43;8.27;;;5.80;;
39880;SDS011;25554;44.954;10.068;2022-09-02T01:23:10;10.50;;;5.95;;
39880;SDS011;25554;44.954;10.068;2022-09-02T01:25:37;7.55;;;5.75;;
39880;SDS011;25554;44.954;10.068;2022-09-02T01:30:35;6.70;;;5.10;;
39880;SDS011;25554;44.954;10.068;2022-09-02T01:33:03;7.15;;;5.68;;
39880;SDS011;25554;44.954;10.068;2022-09-02T01:35:30;7.63;;;5.32;;
39880;SDS011;25554;44.954;10.068;2022-09-02T01:37:57;6.72;;;5.65;;
39880;SDS011;25554;44.954;10.068;2022-09-02T01:40:26;8.32;;;5.88;;
39880;SDS011;25554;44.954;10.068;2022-09-02T01:42:58;8.57;;;5.88;;
39880;SDS011;25554;44.954;10.068;2022-09-02T01:45:27;9.98;;;5.78;;
39880;SDS011;25554;44.954;10.068;2022-09-02T01:47:54;7.20;;;5.18;;
39880;SDS011;25554;44.954;10.068;2022-09-02T01:50:21;5.72;;;5.22;;
39880;SDS011;25554;44.954;10.068;2022-09-02T01:52:50;7.05;;;5.80;;
39880;SDS011;25554;44.954;10.068;2022-09-02T01:55:17;11.65;;;6.32;;
39880;SDS011;25554;44.954;10.068;2022-09-02T01:57:43;11.88;;;6.28;;
39880;SDS011;25554;44.954;10.068;2022-09-02T02:00:12;8.07;;;5.70;;
39880;SDS011;25554;44.954;10.068;2022-09-02T02:02:39;8.93;;;6.18;;
39880;SDS011;25554;44.954;10.068;2022-09-02T02:05:06;9.02;;;6.15;;
39880;SDS011;25554;44.954;10.068;2022-09-02T02:07:34;11.90;;;6.30;;
39880;SDS011;25554;44.954;10.068;2022-09-02T02:10:01;10.93;;;5.43;;
39880;SDS011;25554;44.954;10.068;2022-09-02T02:12:29;7.68;;;6.15;;
39880;SDS011;25554;44.954;10.068;2022-09-02T02:14:55;8.25;;;5.43;;
39880;SDS011;25554;44.954;10.068;2022-09-02T02:17:22;8.90;;;6.05;;
39880;SDS011;25554;44.954;10.068;2022-09-02T02:19:49;7.93;;;5.70;;
39880;SDS011;25554;44.954;10.068;2022-09-02T02:22:16;8.25;;;6.07;;
39880;SDS011;25554;44.954;10.068;2022-09-02T02:24:42;13.35;;;6.30;;
39880;SDS011;25554;44.954;10.068;2022-09-02T02:29:36;7.18;;;6.35;;
39880;SDS011;25554;44.954;10.068;2022-09-02T02:32:03;9.93;;;6.53;;
39880;SDS011;25554;44.954;10.068;2022-09-02T02:34:32;10.68;;;6.72;;
39880;SDS011;25554;44.954;10.068;2022-09-02T02:37:00;11.35;;;6.53;;
39880;SDS011;25554;44.954;10.068;2022-09-02T02:39:26;10.68;;;6.22;;
39880;SDS011;25554;44.954;10.068;2022-09-02T02:41:53;13.23;;;6.55;;
39880;SDS011;25554;44.954;10.068;2022-09-02T02:46:45;6.90;;;6.13;;
39880;SDS011;25554;44.954;10.068;2022-09-02T02:51:39;7.70;;;6.00;;
39880;SDS011;25554;44.954;10.068;2022-09-02T02:56:32;7.20;;;6.43;;
39880;SDS011;25554;44.954;10.068;2022-09-02T02:59:02;9.68;;;5.90;;
39880;SDS011;25554;44.954;10.068;2022-09-02T03:01:30;6.53;;;5.82;;
39880;SDS011;25554;44.954;10.068;2022-09-02T03:03:58;13.10;;;6.78;;
39880;SDS011;25554;44.954;10.068;2022-09-02T03:06:26;10.10;;;6.13;;
39880;SDS011;25554;44.954;10.068;2022-09-02T03:08:55;7.50;;;5.80;;
39880;SDS011;25554;44.954;10.068;2022-09-02T03:11:22;9.63;;;7.13;;
39880;SDS011;25554;44.954;10.068;2022-09-02T03:13:52;10.23;;;7.22;;
39880;SDS011;25554;44.954;10.068;2022-09-02T03:16:19;7.10;;;5.80;;
39880;SDS011;25554;44.954;10.068;2022-09-02T03:18:48;10.23;;;6.18;;
39880;SDS011;25554;44.954;10.068;2022-09-02T03:21:15;7.43;;;6.00;;
39880;SDS011;25554;44.954;10.068;2022-09-02T03:23:44;8.30;;;6.18;;
39880;SDS011;25554;44.954;10.068;2022-09-02T03:26:14;9.40;;;6.45;;
39880;SDS011;25554;44.954;10.068;2022-09-02T03:28:43;8.52;;;6.18;;
39880;SDS011;25554;44.954;10.068;2022-09-02T03:31:17;9.65;;;6.50;;
39880;SDS011;25554;44.954;10.068;2022-09-02T03:33:46;8.23;;;6.22;;
39880;SDS011;25554;44.954;10.068;2022-09-02T03:36:19;9.70;;;6.72;;
39880;SDS011;25554;44.954;10.068;2022-09-02T03:38:46;7.43;;;5.88;;
39880;SDS011;25554;44.954;10.068;2022-09-02T03:41:13;9.38;;;6.70;;
39880;SDS011;25554;44.954;10.068;2022-09-02T03:43:40;17.42;;;7.10;;
39880;SDS011;25554;44.954;10.068;2022-09-02T03:46:07;11.48;;;6.07;;
39880;SDS011;25554;44.954;10.068;2022-09-02T03:48:35;10.93;;;6.57;;
39880;SDS011;25554;44.954;10.068;2022-09-02T03:51:02;14.43;;;6.35;;
39880;SDS011;25554;44.954;10.068;2022-09-02T03:53:30;8.00;;;5.85;;
39880;SDS011;25554;44.954;10.068;2022-09-02T03:56:02;7.40;;;6.03;;
39880;SDS011;25554;44.954;10.068;2022-09-02T03:58:31;9.65;;;7.47;;
39880;SDS011;25554;44.954;10.068;2022-09-02T04:01:01;8.10;;;6.97;;
39880;SDS011;25554;44.954;10.068;2022-09-02T04:03:27;7.05;;;6.35;;
39880;SDS011;25554;44.954;10.068;2022-09-02T04:05:54;10.55;;;7.38;;
39880;SDS011;25554;44.954;10.068;2022-09-02T04:08:23;12.63;;;8.18;;
39880;SDS011;25554;44.954;10.068;2022-09-02T04:10:52;12.27;;;8.05;;
39880;SDS011;25554;44.954;10.068;2022-09-02T04:13:21;12.13;;;8.32;;
39880;SDS011;25554;44.954;10.068;2022-09-02T04:15:48;9.93;;;8.45;;
39880;SDS011;25554;44.954;10.068;2022-09-02T04:18:16;13.15;;;9.07;;
39880;SDS011;25554;44.954;10.068;2022-09-02T04:20:43;11.15;;;8.77;;
39880;SDS011;25554;44.954;10.068;2022-09-02T04:23:10;8.63;;;7.65;;
39880;SDS011;25554;44.954;10.068;2022-09-02T04:25:39;9.77;;;8.45;;
39880;SDS011;25554;44.954;10.068;2022-09-02T04:28:09;8.63;;;7.68;;
39880;SDS011;25554;44.954;10.068;2022-09-02T04:30:38;11.02;;;7.95;;
39880;SDS011;25554;44.954;10.068;2022-09-02T04:33:05;16.15;;;8.73;;
39880;SDS011;25554;44.954;10.068;2022-09-02T04:35:32;8.73;;;7.75;;
39880;SDS011;25554;44.954;10.068;2022-09-02T04:38:01;10.30;;;7.97;;
39880;SDS011;25554;44.954;10.068;2022-09-02T04:40:29;9.95;;;7.20;;
39880;SDS011;25554;44.954;10.068;2022-09-02T04:42:56;11.95;;;7.97;;
39880;SDS011;25554;44.954;10.068;2022-09-02T04:45:23;8.93;;;7.65;;
39880;SDS011;25554;44.954;10.068;2022-09-02T04:47:50;10.13;;;8.00;;
39880;SDS011;25554;44.954;10.068;2022-09-02T04:50:18;12.52;;;8.57;;
39880;SDS011;25554;44.954;10.068;2022-09-02T04:52:56;8.82;;;7.93;;
39880;SDS011;25554;44.954;10.068;2022-09-02T04:55:25;11.35;;;8.00;;
39880;SDS011;25554;44.954;10.068;2022-09-02T04:57:52;11.77;;;7.70;;
39880;SDS011;25554;44.954;10.068;2022-09-02T05:00:19;12.40;;;8.35;;
39880;SDS011;25554;44.954;10.068;2022-09-02T05:02:47;11.98;;;8.50;;
39880;SDS011;25554;44.954;10.068;2022-09-02T05:05:14;10.07;;;7.60;;
39880;SDS011;25554;44.954;10.068;2022-09-02T05:10:07;9.60;;;8.40;;
39880;SDS011;25554;44.954;10.068;2022-09-02T05:12:38;8.80;;;7.60;;
39880;SDS011;25554;44.954;10.068;2022-09-02T05:15:06;12.40;;;9.07;;
39880;SDS011;25554;44.954;10.068;2022-09-02T05:17:34;13.52;;;9.68;;
39880;SDS011;25554;44.954;10.068;2022-09-02T05:20:05;10.77;;;8.85;;
39880;SDS011;25554;44.954;10.068;2022-09-02T05:22:35;13.75;;;9.00;;
39880;SDS011;25554;44.954;10.068;2022-09-02T05:25:04;10.40;;;8.75;;
39880;SDS011;25554;44.954;10.068;2022-09-02T05:27:32;11.50;;;8.82;;
39880;SDS011;25554;44.954;10.068;2022-09-02T05:30:00;12.88;;;9.77;;
39880;SDS011;25554;44.954;10.068;2022-09-02T05:32:29;18.73;;;9.45;;
39880;SDS011;25554;44.954;10.068;2022-09-02T05:34:57;13.77;;;8.57;;
39880;SDS011;25554;44.954;10.068;2022-09-02T05:37:23;11.35;;;8.88;;
39880;SDS011;25554;44.954;10.068;2022-09-02T05:39:50;15.05;;;9.25;;
39880;SDS011;25554;44.954;10.068;2022-09-02T05:42:18;11.90;;;8.45;;
39880;SDS011;25554;44.954;10.068;2022-09-02T05:44:46;13.73;;;8.73;;
39880;SDS011;25554;44.954;10.068;2022-09-02T05:47:18;10.18;;;8.80;;
39880;SDS011;25554;44.954;10.068;2022-09-02T05:49:46;11.40;;;9.68;;
39880;SDS011;25554;44.954;10.068;2022-09-02T05:52:14;13.93;;;10.43;;
39880;SDS011;25554;44.954;10.068;2022-09-02T05:54:46;12.90;;;8.85;;
39880;SDS011;25554;44.954;10.068;2022-09-02T05:57:16;9.77;;;8.75;;
39880;SDS011;25554;44.954;10.068;2022-09-02T05:59:54;11.82;;;9.25;;
39880;SDS011;25554;44.954;10.068;2022-09-02T06:02:24;13.68;;;10.10;;
39880;SDS011;25554;44.954;10.068;2022-09-02T06:04:51;10.00;;;9.00;;
39880;SDS011;25554;44.954;10.068;2022-09-02T06:07:21;10.98;;;8.70;;
39880;SDS011;25554;44.954;10.068;2022-09-02T06:09:51;14.25;;;8.82;;
39880;SDS011;25554;44.954;10.068;2022-09-02T06:12:20;9.02;;;8.07;;
39880;SDS011;25554;44.954;10.068;2022-09-02T06:14:48;11.00;;;9.60;;
39880;SDS011;25554;44.954;10.068;2022-09-02T06:17:17;10.98;;;8.82;;
39880;SDS011;25554;44.954;10.068;2022-09-02T06:19:51;11.70;;;8.55;;
39880;SDS011;25554;44.954;10.068;2022-09-02T06:22:18;11.55;;;8.05;;
39880;SDS011;25554;44.954;10.068;2022-09-02T06:24:46;11.25;;;8.98;;
39880;SDS011;25554;44.954;10.068;2022-09-02T06:27:18;10.82;;;8.30;;
39880;SDS011;25554;44.954;10.068;2022-09-02T06:29:48;8.07;;;7.28;;
39880;SDS011;25554;44.954;10.068;2022-09-02T06:32:18;11.70;;;7.32;;
39880;SDS011;25554;44.954;10.068;2022-09-02T06:34:46;8.52;;;6.97;;
39880;SDS011;25554;44.954;10.068;2022-09-02T06:37:13;11.85;;;7.53;;
39880;SDS011;25554;44.954;10.068;2022-09-02T06:39:40;8.95;;;7.25;;
39880;SDS011;25554;44.954;10.068;2022-09-02T06:42:14;11.23;;;7.10;;
39880;SDS011;25554;44.954;10.068;2022-09-02T06:45:01;9.65;;;6.82;;
39880;SDS011;25554;44.954;10.068;2022-09-02T06:47:29;8.48;;;6.25;;
39880;SDS011;25554;44.954;10.068;2022-09-02T06:49:56;8.23;;;7.30;;
39880;SDS011;25554;44.954;10.068;2022-09-02T06:52:24;7.93;;;6.22;;
39880;SDS011;25554;44.954;10.068;2022-09-02T06:54:51;9.80;;;7.00;;
39880;SDS011;25554;44.954;10.068;2022-09-02T06:57:19;9.15;;;6.45;;
39880;SDS011;25554;44.954;10.068;2022-09-02T06:59:46;7.88;;;6.55;;
39880;SDS011;25554;44.954;10.068;2022-09-02T07:02:16;7.53;;;6.00;;
39880;SDS011;25554;44.954;10.068;2022-09-02T07:04:42;9.82;;;6.70;;
39880;SDS011;25554;44.954;10.068;2022-09-02T07:07:28;9.15;;;6.53;;
39880;SDS011;25554;44.954;10.068;2022-09-02T07:10:06;9.23;;;6.40;;
39880;SDS011;25554;44.954;10.068;2022-09-02T07:12:35;6.47;;;5.80;;
39880;SDS011;25554;44.954;10.068;2022-09-02T07:15:07;7.60;;;5.78;;
39880;SDS011;25554;44.954;10.068;2022-09-02T07:17:39;6.45;;;5.70;;
39880;SDS011;25554;44.954;10.068;2022-09-02T07:20:10;10.52;;;6.35;;
39880;SDS011;25554;44.954;10.068;2022-09-02T07:22:47;7.03;;;5.88;;
39880;SDS011;25554;44.954;10.068;2022-09-02T07:25:17;7.38;;;5.90;;
39880;SDS011;25554;44.954;10.068;2022-09-02T07:27:46;10.18;;;5.75;;
39880;SDS011;25554;44.954;10.068;2022-09-02T07:30:12;12.65;;;5.82;;
39880;SDS011;25554;44.954;10.068;2022-09-02T07:32:42;8.80;;;5.55;;
39880;SDS011;25554;44.954;10.068;2022-09-02T07:35:09;10.75;;;5.10;;
39880;SDS011;25554;44.954;10.068;2022-09-02T07:37:36;6.80;;;5.22;;
39880;SDS011;25554;44.954;10.068;2022-09-02T07:40:06;7.30;;;4.72;;
39880;SDS011;25554;44.954;10.068;2022-09-02T07:42:33;6.57;;;4.97;;
39880;SDS011;25554;44.954;10.068;2022-09-02T07:45:00;6.28;;;5.28;;
39880;SDS011;25554;44.954;10.068;2022-09-02T07:47:27;6.53;;;5.13;;
39880;SDS011;25554;44.954;10.068;2022-09-02T07:49:54;5.28;;;4.55;;
39880;SDS011;25554;44.954;10.068;2022-09-02T07:52:21;7.93;;;4.53;;
39880;SDS011;25554;44.954;10.068;2022-09-02T07:54:47;13.50;;;5.50;;
39880;SDS011;25554;44.954;10.068;2022-09-02T07:57:14;7.70;;;4.43;;
39880;SDS011;25554;44.954;10.068;2022-09-02T07:59:41;13.95;;;5.28;;
39880;SDS011;25554;44.954;10.068;2022-09-02T08:02:08;6.70;;;4.90;;
39880;SDS011;25554;44.954;10.068;2022-09-02T08:04:34;8.95;;;4.65;;
39880;SDS011;25554;44.954;10.068;2022-09-02T08:07:05;6.88;;;4.82;;
39880;SDS011;25554;44.954;10.068;2022-09-02T08:09:32;8.48;;;4.40;;
39880;SDS011;25554;44.954;10.068;2022-09-02T08:11:58;8.10;;;4.68;;
39880;SDS011;25554;44.954;10.068;2022-09-02T08:14:25;8.27;;;5.15;;
39880;SDS011;25554;44.954;10.068;2022-09-02T08:16:53;9.20;;;4.70;;
39880;SDS011;25554;44.954;10.068;2022-09-02T08:19:21;7.28;;;4.07;;
39880;SDS011;25554;44.954;10.068;2022-09-02T08:21:48;9.27;;;4.75;;
39880;SDS011;25554;44.954;10.068;2022-09-02T08:24:15;5.07;;;4.63;;
39880;SDS011;25554;44.954;10.068;2022-09-02T08:26:42;4.30;;;3.97;;
39880;SDS011;25554;44.954;10.068;2022-09-02T08:29:08;9.07;;;4.38;;
39880;SDS011;25554;44.954;10.068;2022-09-02T08:31:35;7.45;;;4.63;;
39880;SDS011;25554;44.954;10.068;2022-09-02T08:34:02;10.48;;;3.80;;
39880;SDS011;25554;44.954;10.068;2022-09-02T08:36:29;7.22;;;4.07;;
39880;SDS011;25554;44.954;10.068;2022-09-02T08:38:55;4.72;;;3.55;;
39880;SDS011;25554;44.954;10.068;2022-09-02T08:41:26;4.47;;;3.88;;
39880;SDS011;25554;44.954;10.068;2022-09-02T08:43:59;8.10;;;4.18;;
39880;SDS011;25554;44.954;10.068;2022-09-02T08:46:27;6.25;;;2.90;;
39880;SDS011;25554;44.954;10.068;2022-09-02T08:54:42;7.60;;;3.30;;
39880;SDS011;25554;44.954;10.068;2022-09-02T08:57:22;10.50;;;3.22;;
39880;SDS011;25554;44.954;10.068;2022-09-02T08:59:52;5.78;;;4.28;;
39880;SDS011;25554;44.954;10.068;2022-09-02T09:02:29;4.57;;;2.90;;
39880;SDS011;25554;44.954;10.068;2022-09-02T09:10:45;5.20;;;3.92;;
39880;SDS011;25554;44.954;10.068;2022-09-02T09:16:29;5.20;;;3.15;;
39880;SDS011;25554;44.954;10.068;2022-09-02T09:21:37;4.57;;;2.80;;
39880;SDS011;25554;44.954;10.068;2022-09-02T09:24:27;6.47;;;3.10;;
39880;SDS011;25554;44.954;10.068;2022-09-02T09:27:08;3.78;;;2.60;;
39880;SDS011;25554;44.954;10.068;2022-09-02T09:29:40;6.60;;;3.22;;
39880;SDS011;25554;44.954;10.068;2022-09-02T09:32:11;5.43;;;3.00;;
39880;SDS011;25554;44.954;10.068;2022-09-02T09:39:58;6.03;;;3.08;;
39880;SDS011;25554;44.954;10.068;2022-09-02T09:42:32;6.43;;;2.50;;
39880;SDS011;25554;44.954;10.068;2022-09-02T09:45:15;7.70;;;3.13;;
39880;SDS011;25554;44.954;10.068;2022-09-02T09:47:43;5.75;;;2.78;;
39880;SDS011;25554;44.954;10.068;2022-09-02T09:50:15;5.55;;;2.85;;
39880;SDS011;25554;44.954;10.068;2022-09-02T09:52:42;2.60;;;1.95;;
39880;SDS011;25554;44.954;10.068;2022-09-02T09:55:10;1.83;;;1.70;;
39880;SDS011;25554;44.954;10.068;2022-09-02T09:57:43;5.47;;;2.67;;
39880;SDS011;25554;44.954;10.068;2022-09-02T10:03:07;3.75;;;2.78;;
39880;SDS011;25554;44.954;10.068;2022-09-02T10:05:46;5.00;;;2.20;;
39880;SDS011;25554;44.954;10.068;2022-09-02T10:10:39;8.20;;;2.60;;
39880;SDS011;25554;44.954;10.068;2022-09-02T10:13:31;6.18;;;2.42;;
39880;SDS011;25554;44.954;10.068;2022-09-02T10:21:25;3.83;;;2.70;;
39880;SDS011;25554;44.954;10.068;2022-09-02T10:27:06;2.67;;;2.17;;
39880;SDS011;25554;44.954;10.068;2022-09-02T10:35:23;4.63;;;2.70;;
39880;SDS011;25554;44.954;10.068;2022-09-02T10:38:03;3.67;;;2.58;;
39880;SDS011;25554;44.954;10.068;2022-09-02T10:40:44;3.33;;;2.45;;
39880;SDS011;25554;44.954;10.068;2022-09-02T10:51:06;3.67;;;1.83;;
39880;SDS011;25554;44.954;10.068;2022-09-02T10:53:56;3.25;;;2.08;;
39880;SDS011;25554;44.954;10.068;2022-09-02T10:56:49;3.65;;;2.22;;
39880;SDS011;25554;44.954;10.068;2022-09-02T10:59:18;2.38;;;1.95;;
39880;SDS011;25554;44.954;10.068;2022-09-02T11:02:05;2.78;;;1.98;;
39880;SDS011;25554;44.954;10.068;2022-09-02T11:04:45;3.35;;;2.10;;
39880;SDS011;25554;44.954;10.068;2022-09-02T11:07:23;2.92;;;2.17;;
39880;SDS011;25554;44.954;10.068;2022-09-02T11:10:03;2.78;;;2.17;;
39880;SDS011;25554;44.954;10.068;2022-09-02T11:12:39;5.28;;;2.20;;
39880;SDS011;25554;44.954;10.068;2022-09-02T11:17:53;3.65;;;2.13;;
39880;SDS011;25554;44.954;10.068;2022-09-02T11:31:34;3.70;;;2.40;;
39880;SDS011;25554;44.954;10.068;2022-09-02T11:34:29;5.15;;;1.70;;
39880;SDS011;25554;44.954;10.068;2022-09-02T11:37:07;4.95;;;2.50;;
39880;SDS011;25554;44.954;10.068;2022-09-02T11:40:09;4.18;;;1.75;;
39880;SDS011;25554;44.954;10.068;2022-09-02T11:45:18;5.78;;;2.47;;
39880;SDS011;25554;44.954;10.068;2022-09-02T11:48:17;4.88;;;2.45;;
39880;SDS011;25554;44.954;10.068;2022-09-02T11:51:11;2.67;;;2.30;;
39880;SDS011;25554;44.954;10.068;2022-09-02T11:53:47;2.88;;;1.70;;
39880;SDS011;25554;44.954;10.068;2022-09-02T11:56:18;5.00;;;1.77;;
39880;SDS011;25554;44.954;10.068;2022-09-02T11:58:50;3.17;;;1.92;;
39880;SDS011;25554;44.954;10.068;2022-09-02T12:03:44;3.38;;;1.98;;
39880;SDS011;25554;44.954;10.068;2022-09-02T12:06:18;2.38;;;1.90;;
39880;SDS011;25554;44.954;10.068;2022-09-02T12:17:05;3.45;;;1.92;;
39880;SDS011;25554;44.954;10.068;2022-09-02T12:19:40;3.28;;;2.13;;
39880;SDS011;25554;44.954;10.068;2022-09-02T12:24:50;4.97;;;2.60;;
39880;SDS011;25554;44.954;10.068;2022-09-02T12:27:22;3.08;;;2.78;;
39880;SDS011;25554;44.954;10.068;2022-09-02T12:29:53;2.45;;;2.22;;
39880;SDS011;25554;44.954;10.068;2022-09-02T12:33:00;4.78;;;2.10;;
39880;SDS011;25554;44.954;10.068;2022-09-02T12:41:18;3.58;;;2.30;;
39880;SDS011;25554;44.954;10.068;2022-09-02T12:51:54;4.60;;;2.28;;
39880;SDS011;25554;44.954;10.068;2022-09-02T12:57:15;2.10;;;2.00;;
39880;SDS011;25554;44.954;10.068;2022-09-02T12:59:43;4.38;;;2.13;;
39880;SDS011;25554;44.954;10.068;2022-09-02T13:17:10;3.35;;;3.05;;
39880;SDS011;25554;44.954;10.068;2022-09-02T13:23:02;2.47;;;1.80;;
39880;SDS011;25554;44.954;10.068;2022-09-02T13:25:40;3.63;;;2.05;;
39880;SDS011;25554;44.954;10.068;2022-09-02T13:28:31;2.60;;;1.98;;
39880;SDS011;25554;44.954;10.068;2022-09-02T13:31:26;3.78;;;2.15;;
39880;SDS011;25554;44.954;10.068;2022-09-02T13:33:56;2.80;;;2.10;;
39880;SDS011;25554;44.954;10.068;2022-09-02T13:36:30;2.80;;;1.90;;
39880;SDS011;25554;44.954;10.068;2022-09-02T13:39:17;2.95;;;2.47;;
39880;SDS011;25554;44.954;10.068;2022-09-02T13:41:51;2.45;;;2.03;;
39880;SDS011;25554;44.954;10.068;2022-09-02T13:44:22;2.35;;;2.15;;
39880;SDS011;25554;44.954;10.068;2022-09-02T13:46:54;2.70;;;2.50;;
39880;SDS011;25554;44.954;10.068;2022-09-02T13:49:34;2.67;;;2.15;;
39880;SDS011;25554;44.954;10.068;2022-09-02T13:52:03;2.58;;;2.13;;
39880;SDS011;25554;44.954;10.068;2022-09-02T13:54:33;3.20;;;1.90;;
39880;SDS011;25554;44.954;10.068;2022-09-02T13:57:05;4.55;;;1.73;;
39880;SDS011;25554;44.954;10.068;2022-09-02T13:59:35;2.78;;;2.05;;
39880;SDS011;25554;44.954;10.068;2022-09-02T14:04:46;3.63;;;2.10;;
39880;SDS011;25554;44.954;10.068;2022-09-02T14:07:16;3.45;;;1.98;;
39880;SDS011;25554;44.954;10.068;2022-09-02T14:09:49;4.10;;;1.95;;
39880;SDS011;25554;44.954;10.068;2022-09-02T14:12:16;2.83;;;2.28;;
39880;SDS011;25554;44.954;10.068;2022-09-02T14:14:43;2.33;;;2.13;;
39880;SDS011;25554;44.954;10.068;2022-09-02T14:17:17;4.20;;;2.30;;
39880;SDS011;25554;44.954;10.068;2022-09-02T14:19:46;9.13;;;2.90;;
39880;SDS011;25554;44.954;10.068;2022-09-02T14:22:30;3.70;;;1.93;;
39880;SDS011;25554;44.954;10.068;2022-09-02T14:24:56;3.13;;;1.80;;
39880;SDS011;25554;44.954;10.068;2022-09-02T14:27:23;2.53;;;2.08;;
39880;SDS011;25554;44.954;10.068;2022-09-02T14:29:55;2.42;;;2.10;;
39880;SDS011;25554;44.954;10.068;2022-09-02T14:32:23;5.05;;;2.63;;
39880;SDS011;25554;44.954;10.068;2022-09-02T14:35:11;2.25;;;1.92;;
39880;SDS011;25554;44.954;10.068;2022-09-02T14:37:55;2.53;;;2.03;;
39880;SDS011;25554;44.954;10.068;2022-09-02T14:40:31;2.35;;;2.05;;
39880;SDS011;25554;44.954;10.068;2022-09-02T14:43:01;2.58;;;2.08;;
39880;SDS011;25554;44.954;10.068;2022-09-02T14:45:29;2.15;;;2.00;;
39880;SDS011;25554;44.954;10.068;2022-09-02T14:48:01;2.53;;;2.33;;
39880;SDS011;25554;44.954;10.068;2022-09-02T14:50:35;2.30;;;2.08;;
39880;SDS011;25554;44.954;10.068;2022-09-02T14:53:03;3.60;;;2.60;;
39880;SDS011;25554;44.954;10.068;2022-09-02T14:55:41;7.05;;;2.95;;
39880;SDS011;25554;44.954;10.068;2022-09-02T14:58:15;3.60;;;2.22;;
39880;SDS011;25554;44.954;10.068;2022-09-02T15:00:45;3.45;;;2.30;;
39880;SDS011;25554;44.954;10.068;2022-09-02T15:03:17;6.18;;;2.90;;
39880;SDS011;25554;44.954;10.068;2022-09-02T15:05:43;3.88;;;3.40;;
39880;SDS011;25554;44.954;10.068;2022-09-02T15:08:11;5.38;;;2.67;;
39880;SDS011;25554;44.954;10.068;2022-09-02T15:10:38;2.35;;;2.13;;
39880;SDS011;25554;44.954;10.068;2022-09-02T15:13:12;2.42;;;1.80;;
39880;SDS011;25554;44.954;10.068;2022-09-02T15:15:50;2.72;;;2.50;;
39880;SDS011;25554;44.954;10.068;2022-09-02T15:18:17;3.60;;;2.58;;
39880;SDS011;25554;44.954;10.068;2022-09-02T15:20:44;3.35;;;2.30;;
39880;SDS011;25554;44.954;10.068;2022-09-02T15:23:10;4.88;;;3.00;;
39880;SDS011;25554;44.954;10.068;2022-09-02T15:25:37;6.00;;;2.85;;
39880;SDS011;25554;44.954;10.068;2022-09-02T15:28:04;4.40;;;3.05;;
39880;SDS011;25554;44.954;10.068;2022-09-02T15:30:32;2.45;;;2.25;;
39880;SDS011;25554;44.954;10.068;2022-09-02T15:33:04;2.63;;;2.17;;
39880;SDS011;25554;44.954;10.068;2022-09-02T15:35:32;2.60;;;2.40;;
39880;SDS011;25554;44.954;10.068;2022-09-02T15:37:59;3.00;;;2.80;;
39880;SDS011;25554;44.954;10.068;2022-09-02T15:40:26;3.20;;;2.90;;
39880;SDS011;25554;44.954;10.068;2022-09-02T15:42:54;2.65;;;2.40;;
39880;SDS011;25554;44.954;10.068;2022-09-02T15:45:21;3.53;;;2.47;;
39880;SDS011;25554;44.954;10.068;2022-09-02T15:47:48;2.10;;;1.90;;
39880;SDS011;25554;44.954;10.068;2022-09-02T15:50:15;3.00;;;2.20;;
39880;SDS011;25554;44.954;10.068;2022-09-02T15:52:41;5.03;;;3.13;;
39880;SDS011;25554;44.954;10.068;2022-09-02T15:55:10;3.30;;;3.10;;
39880;SDS011;25554;44.954;10.068;2022-09-02T15:57:37;3.70;;;2.55;;
39880;SDS011;25554;44.954;10.068;2022-09-02T16:00:06;2.60;;;2.40;;
39880;SDS011;25554;44.954;10.068;2022-09-02T16:02:37;2.63;;;2.40;;
39880;SDS011;25554;44.954;10.068;2022-09-02T16:05:04;6.07;;;3.50;;
39880;SDS011;25554;44.954;10.068;2022-09-02T16:07:30;2.53;;;2.33;;
39880;SDS011;25554;44.954;10.068;2022-09-02T16:09:57;4.82;;;2.95;;
39880;SDS011;25554;44.954;10.068;2022-09-02T16:12:23;5.20;;;3.30;;
39880;SDS011;25554;44.954;10.068;2022-09-02T16:14:50;4.10;;;2.50;;
39880;SDS011;25554;44.954;10.068;2022-09-02T16:17:17;2.78;;;2.58;;
39880;SDS011;25554;44.954;10.068;2022-09-02T16:19:43;2.92;;;2.22;;
39880;SDS011;25554;44.954;10.068;2022-09-02T16:22:10;5.60;;;3.00;;
39880;SDS011;25554;44.954;10.068;2022-09-02T16:24:36;4.63;;;3.00;;
39880;SDS011;25554;44.954;10.068;2022-09-02T16:27:03;5.32;;;2.78;;
39880;SDS011;25554;44.954;10.068;2022-09-02T16:29:30;5.00;;;3.67;;
39880;SDS011;25554;44.954;10.068;2022-09-02T16:31:57;4.72;;;2.65;;
39880;SDS011;25554;44.954;10.068;2022-09-02T16:34:24;10.80;;;2.78;;
39880;SDS011;25554;44.954;10.068;2022-09-02T16:36:51;3.38;;;2.60;;
39880;SDS011;25554;44.954;10.068;2022-09-02T16:39:17;5.55;;;2.65;;
39880;SDS011;25554;44.954;10.068;2022-09-02T16:41:46;4.38;;;2.70;;
39880;SDS011;25554;44.954;10.068;2022-09-02T16:44:15;4.78;;;3.00;;
39880;SDS011;25554;44.954;10.068;2022-09-02T16:46:43;4.10;;;2.60;;
39880;SDS011;25554;44.954;10.068;2022-09-02T16:49:14;3.50;;;2.28;;
39880;SDS011;25554;44.954;10.068;2022-09-02T16:51:45;3.75;;;2.90;;
39880;SDS011;25554;44.954;10.068;2022-09-02T16:54:12;3.13;;;2.72;;
39880;SDS011;25554;44.954;10.068;2022-09-02T16:56:39;6.25;;;4.00;;
39880;SDS011;25554;44.954;10.068;2022-09-02T16:59:07;7.07;;;2.92;;
39880;SDS011;25554;44.954;10.068;2022-09-02T17:01:35;4.70;;;3.65;;
39880;SDS011;25554;44.954;10.068;2022-09-02T17:04:02;5.55;;;4.05;;
39880;SDS011;25554;44.954;10.068;2022-09-02T17:06:30;4.50;;;3.90;;
39880;SDS011;25554;44.954;10.068;2022-09-02T17:08:56;10.20;;;4.70;;
39880;SDS011;25554;44.954;10.068;2022-09-02T17:11:24;8.63;;;3.88;;